createdAt,value
2024-01-10T00:00:43.130Z,-8.43
2024-01-10T00:03:10.976Z,-8.47
2024-01-10T00:05:40.038Z,-8.46
2024-01-10T00:08:08.065Z,-8.55
2024-01-10T00:10:35.725Z,-8.56
2024-01-10T00:13:03.302Z,-8.49
2024-01-10T00:15:30.892Z,-8.46
2024-01-10T00:17:58.817Z,-8.43
2024-01-10T00:20:26.538Z,-8.43
2024-01-10T00:22:55.779Z,-8.46
2024-01-10T00:25:23.414Z,-8.36
2024-01-10T00:27:51.437Z,-8.46
2024-01-10T00:30:19.305Z,-8.60
2024-01-10T00:32:47.065Z,-8.64
2024-01-10T00:35:14.726Z,-8.56
2024-01-10T00:37:42.344Z,-8.46
2024-01-10T00:40:11.949Z,-8.45
2024-01-10T00:42:39.503Z,-8.47
2024-01-10T00:45:07.805Z,-8.49
2024-01-10T00:47:35.516Z,-8.40
2024-01-10T00:50:03.229Z,-8.41
2024-01-10T00:52:30.973Z,-8.45
2024-01-10T00:54:58.766Z,-8.60
2024-01-10T00:57:27.718Z,-8.66
2024-01-10T00:59:55.503Z,-8.74
2024-01-10T01:02:23.349Z,-8.81
2024-01-10T01:04:51.160Z,-8.76
2024-01-10T01:07:18.892Z,-8.78
2024-01-10T01:09:46.556Z,-8.91
2024-01-10T01:12:14.205Z,-8.92
2024-01-10T01:14:43.139Z,-8.72
2024-01-10T01:17:10.864Z,-8.64
2024-01-10T01:19:38.789Z,-8.53
2024-01-10T01:22:06.417Z,-8.60
2024-01-10T01:24:34.390Z,-8.44
2024-01-10T01:27:02.112Z,-8.45
2024-01-10T01:29:32.130Z,-8.57
2024-01-10T01:32:01.250Z,-8.49
2024-01-10T01:34:28.939Z,-8.41
2024-01-10T01:36:56.476Z,-8.48
2024-01-10T01:39:24.312Z,-8.36
2024-01-10T01:41:51.959Z,-8.19
2024-01-10T01:44:19.582Z,-8.30
2024-01-10T01:46:48.666Z,-8.52
2024-01-10T01:49:18.267Z,-8.57
2024-01-10T01:51:47.443Z,-8.63
2024-01-10T01:54:15.720Z,-8.64
2024-01-10T01:56:45.952Z,-8.65
2024-01-10T01:59:14.198Z,-8.67
2024-01-10T02:01:42.719Z,-8.70
2024-01-10T02:04:10.459Z,-8.73
2024-01-10T02:06:39.873Z,-8.65
2024-01-10T02:09:07.636Z,-8.65
2024-01-10T02:11:35.269Z,-8.64
2024-01-10T02:14:03.264Z,-8.62
2024-01-10T02:16:31.592Z,-8.61
2024-01-10T02:18:59.354Z,-8.63
2024-01-10T02:21:26.958Z,-8.68
2024-01-10T02:23:55.862Z,-8.66
2024-01-10T02:26:24.807Z,-8.63
2024-01-10T02:28:52.755Z,-8.66
2024-01-10T02:31:20.352Z,-8.67
2024-01-10T02:33:48.351Z,-8.69
2024-01-10T02:36:16.072Z,-8.67
2024-01-10T02:38:43.657Z,-8.73
2024-01-10T02:41:11.346Z,-8.72
2024-01-10T02:43:40.483Z,-8.72
2024-01-10T02:46:08.085Z,-8.78
2024-01-10T02:48:35.670Z,-8.73
2024-01-10T02:51:03.820Z,-8.78
2024-01-10T02:53:31.512Z,-8.79
2024-01-10T02:55:59.068Z,-8.77
2024-01-10T02:58:26.751Z,-8.84
2024-01-10T03:00:55.765Z,-8.85
2024-01-10T03:03:23.627Z,-8.84
2024-01-10T03:05:51.415Z,-8.81
2024-01-10T03:08:19.142Z,-8.84
2024-01-10T03:10:46.853Z,-8.83
2024-01-10T03:13:14.489Z,-8.85
2024-01-10T03:15:42.311Z,-8.87
2024-01-10T03:18:11.326Z,-8.89
2024-01-10T03:20:38.917Z,-8.89
2024-01-10T03:23:06.671Z,-8.90
2024-01-10T03:25:34.508Z,-8.90
2024-01-10T03:28:02.100Z,-8.92
2024-01-10T03:30:29.697Z,-8.92
2024-01-10T03:32:57.730Z,-8.92
2024-01-10T03:35:26.850Z,-8.92
2024-01-10T03:37:54.500Z,-8.95
2024-01-10T03:40:22.183Z,-8.99
2024-01-10T03:42:49.820Z,-8.95
2024-01-10T03:45:22.297Z,-8.95
2024-01-10T03:47:51.460Z,-8.98
2024-01-10T03:50:21.155Z,-8.96
2024-01-10T03:52:50.392Z,-8.90
2024-01-10T03:55:18.008Z,-8.93
2024-01-10T03:57:45.984Z,-8.88
2024-01-10T04:00:14.442Z,-8.86
2024-01-10T04:02:42.089Z,-8.89
2024-01-10T04:05:13.577Z,-8.89
2024-01-10T04:07:42.413Z,-8.87
2024-01-10T04:10:11.753Z,-8.89
2024-01-10T04:12:39.529Z,-8.81
2024-01-10T04:15:08.831Z,-8.90
2024-01-10T04:17:36.916Z,-8.93
2024-01-10T04:20:05.794Z,-8.96
2024-01-10T04:22:33.826Z,-8.99
2024-01-10T04:25:03.254Z,-8.97
2024-01-10T04:27:32.854Z,-8.98
2024-01-10T04:30:00.941Z,-9.00
2024-01-10T04:32:29.382Z,-9.01
2024-01-10T04:34:57.602Z,-8.99
2024-01-10T04:37:27.502Z,-8.97
2024-01-10T04:39:56.102Z,-8.98
2024-01-10T04:42:24.030Z,-9.00
2024-01-10T04:44:53.258Z,-8.98
2024-01-10T04:47:21.299Z,-8.99
2024-01-10T04:49:49.073Z,-8.95
2024-01-10T04:52:16.709Z,-8.92
2024-01-10T04:54:45.043Z,-8.92
2024-01-10T04:57:13.433Z,-8.93
2024-01-10T04:59:42.090Z,-8.96
2024-01-10T05:02:12.123Z,-8.92
2024-01-10T05:04:40.312Z,-8.97
2024-01-10T05:07:08.656Z,-8.94
2024-01-10T05:09:37.152Z,-8.94
2024-01-10T05:12:05.701Z,-8.94
2024-01-10T05:14:33.947Z,-9.01
2024-01-10T05:17:02.139Z,-9.01
2024-01-10T05:19:32.884Z,-8.97
2024-01-10T05:22:04.587Z,-9.02
2024-01-10T05:24:33.037Z,-9.05
2024-01-10T05:27:01.070Z,-9.05
2024-01-10T05:29:29.436Z,-9.06
2024-01-10T05:31:57.677Z,-9.08
2024-01-10T05:34:26.983Z,-9.09
2024-01-10T05:36:56.550Z,-9.05
2024-01-10T05:39:24.687Z,-9.09
2024-01-10T05:41:52.413Z,-9.11
2024-01-10T05:44:20.136Z,-9.11
2024-01-10T05:46:48.992Z,-9.09
2024-01-10T05:49:16.900Z,-9.08
2024-01-10T05:51:45.248Z,-9.11
2024-01-10T05:54:14.446Z,-9.08
2024-01-10T05:56:42.134Z,-9.13
2024-01-10T05:59:10.075Z,-9.11
2024-01-10T06:01:38.456Z,-9.28
2024-01-10T06:04:06.991Z,-9.39
2024-01-10T06:06:36.910Z,-9.40
2024-01-10T06:09:04.583Z,-9.39
2024-01-10T06:11:34.478Z,-9.39
2024-01-10T06:14:02.206Z,-9.48
2024-01-10T06:16:31.486Z,-9.40
2024-01-10T06:18:59.558Z,-9.37
2024-01-10T06:21:27.528Z,-9.22
2024-01-10T06:23:55.463Z,-9.31
2024-01-10T06:26:24.099Z,-9.30
2024-01-10T06:28:55.090Z,-9.19
2024-01-10T06:31:24.993Z,-9.32
2024-01-10T06:33:53.787Z,-9.26
2024-01-10T06:36:22.128Z,-9.20
2024-01-10T06:38:50.332Z,-9.14
2024-01-10T06:41:18.785Z,-9.12
2024-01-10T06:44:00.841Z,-9.11
2024-01-10T06:46:31.832Z,-9.00
2024-01-10T06:49:00.428Z,-9.05
2024-01-10T06:51:28.676Z,-9.06
2024-01-10T06:54:04.358Z,-9.03
2024-01-10T06:56:32.749Z,-9.04
2024-01-10T06:59:05.955Z,-9.04
2024-01-10T07:01:37.382Z,-8.99
2024-01-10T07:04:06.096Z,-9.03
2024-01-10T07:06:56.164Z,-9.04
2024-01-10T07:09:26.266Z,-9.05
2024-01-10T07:11:54.880Z,-9.07
2024-01-10T07:14:27.628Z,-9.10
2024-01-10T07:16:58.463Z,-9.08
2024-01-10T07:19:28.118Z,-9.15
2024-01-10T07:21:56.669Z,-9.16
2024-01-10T07:24:29.675Z,-9.16
2024-01-10T07:27:00.669Z,-9.13
2024-01-10T07:29:29.793Z,-9.11
2024-01-10T07:32:01.725Z,-9.11
2024-01-10T07:34:30.636Z,-9.10
2024-01-10T07:37:00.892Z,-9.12
2024-01-10T07:39:31.237Z,-9.15
2024-01-10T07:41:59.545Z,-9.14
2024-01-10T07:44:27.848Z,-9.11
2024-01-10T07:46:58.178Z,-9.15
2024-01-10T07:49:28.409Z,-9.11
2024-01-10T07:51:56.468Z,-9.13
2024-01-10T07:54:24.573Z,-9.10
2024-01-10T07:56:54.711Z,-9.06
2024-01-10T07:59:23.859Z,-8.91
2024-01-10T08:02:00.656Z,-8.97
2024-01-10T08:04:30.722Z,-9.01
2024-01-10T08:07:00.524Z,-9.06
2024-01-10T08:09:29.437Z,-9.04
2024-01-10T08:11:59.758Z,-9.02
2024-01-10T08:14:29.036Z,-8.99
2024-01-10T08:17:02.369Z,-8.97
2024-01-10T08:19:38.954Z,-8.85
2024-01-10T08:22:07.793Z,-8.97
2024-01-10T08:24:37.377Z,-8.85
2024-01-10T08:27:08.290Z,-8.78
2024-01-10T08:29:41.052Z,-8.78
2024-01-10T08:32:15.387Z,-8.76
2024-01-10T08:34:53.654Z,-8.73
2024-01-10T08:37:26.570Z,-8.73
2024-01-10T08:39:58.537Z,-8.69
2024-01-10T08:42:35.040Z,-8.64
2024-01-10T08:45:02.929Z,-8.61
2024-01-10T08:47:36.406Z,-8.58
2024-01-10T08:50:14.741Z,-8.47
2024-01-10T08:52:46.451Z,-8.48
2024-01-10T08:55:16.408Z,-8.43
2024-01-10T08:57:45.161Z,-8.40
2024-01-10T09:00:17.505Z,-8.31
2024-01-10T09:02:47.752Z,-8.33
2024-01-10T09:05:30.220Z,-8.23
2024-01-10T09:10:45.735Z,-8.10
2024-01-10T09:13:15.003Z,-8.06
2024-01-10T09:15:46.222Z,-8.01
2024-01-10T09:18:16.807Z,-7.92
2024-01-10T09:20:49.838Z,-7.83
2024-01-10T09:23:21.616Z,-7.85
2024-01-10T09:28:39.487Z,-7.71
2024-01-10T09:31:09.951Z,-7.76
2024-01-10T09:36:23.870Z,-7.47
2024-01-10T09:38:56.393Z,-7.43
2024-01-10T09:41:28.983Z,-7.39
2024-01-10T09:43:59.153Z,-7.39
2024-01-10T09:46:33.990Z,-7.33
2024-01-10T09:49:03.678Z,-7.23
2024-01-10T09:51:37.305Z,-7.11
2024-01-10T09:54:29.151Z,-7.07
2024-01-10T09:56:58.653Z,-7.00
2024-01-10T09:59:34.039Z,-6.88
2024-01-10T10:02:06.127Z,-6.78
2024-01-10T10:04:37.958Z,-6.65
2024-01-10T10:07:13.631Z,-6.53
2024-01-10T10:09:43.375Z,-6.49
2024-01-10T10:15:12.487Z,-6.21
2024-01-10T10:17:46.320Z,-6.13
2024-01-10T10:20:16.630Z,-5.97
2024-01-10T10:23:01.947Z,-5.70
2024-01-10T10:25:39.675Z,-5.29
2024-01-10T10:28:10.885Z,-4.96
2024-01-10T10:30:42.841Z,-4.62
2024-01-10T10:33:12.405Z,-4.04
2024-01-10T10:35:43.501Z,-3.43
2024-01-10T10:38:16.031Z,-2.69
2024-01-10T10:40:43.934Z,-2.24
2024-01-10T10:43:15.756Z,-1.70
2024-01-10T10:45:49.055Z,-1.10
2024-01-10T10:48:20.753Z,-0.56
2024-01-10T10:50:58.479Z,-0.10
2024-01-10T10:53:31.500Z,0.11
2024-01-10T10:56:01.603Z,0.14
2024-01-10T10:58:29.692Z,0.19
2024-01-10T11:00:59.514Z,0.50
2024-01-10T11:03:31.947Z,1.05
2024-01-10T11:06:01.767Z,1.57
2024-01-10T11:08:37.737Z,1.91
2024-01-10T11:11:08.077Z,2.26
2024-01-10T11:13:56.051Z,2.78
2024-01-10T11:16:52.656Z,3.39
2024-01-10T11:19:43.432Z,3.58
2024-01-10T11:22:24.293Z,3.71
2024-01-10T11:24:54.562Z,3.92
2024-01-10T11:27:22.684Z,4.40
2024-01-10T11:29:50.993Z,5.03
2024-01-10T11:32:20.306Z,5.46
2024-01-10T11:34:57.012Z,5.83
2024-01-10T11:37:25.132Z,6.15
2024-01-10T11:39:55.340Z,6.50
2024-01-10T11:42:42.782Z,6.67
2024-01-10T11:45:10.674Z,6.87
2024-01-10T11:47:42.372Z,7.01
2024-01-10T11:50:10.665Z,7.17
2024-01-10T11:52:40.388Z,7.36
2024-01-10T11:55:11.121Z,7.48
2024-01-10T11:57:41.498Z,7.63
2024-01-10T12:00:10.709Z,7.78
2024-01-10T12:02:40.104Z,7.92
2024-01-10T12:05:12.087Z,8.05
2024-01-10T12:07:40.307Z,8.10
2024-01-10T12:10:11.119Z,8.33
2024-01-10T12:12:39.706Z,8.50
2024-01-10T12:15:10.003Z,8.87
2024-01-10T12:17:45.293Z,9.10
2024-01-10T12:20:15.135Z,8.98
2024-01-10T12:22:45.062Z,8.38
2024-01-10T12:25:22.446Z,7.68
2024-01-10T12:28:00.433Z,6.88
2024-01-10T12:30:29.098Z,5.78
2024-01-10T12:32:57.132Z,4.69
2024-01-10T12:35:25.494Z,4.12
2024-01-10T12:37:58.367Z,4.04
2024-01-10T12:40:30.272Z,3.81
2024-01-10T12:43:05.303Z,3.55
2024-01-10T12:45:34.810Z,3.11
2024-01-10T12:48:04.958Z,2.61
2024-01-10T12:50:34.267Z,2.27
2024-01-10T12:53:02.097Z,2.32
2024-01-10T12:55:32.722Z,2.17
2024-01-10T12:58:04.879Z,1.96
2024-01-10T13:00:37.584Z,1.94
2024-01-10T13:03:05.700Z,1.75
2024-01-10T13:05:33.641Z,1.64
2024-01-10T13:08:03.022Z,1.56
2024-01-10T13:10:32.023Z,1.46
2024-01-10T13:13:00.079Z,1.36
2024-01-10T13:15:28.211Z,1.26
2024-01-10T13:17:56.179Z,1.20
2024-01-10T13:20:25.496Z,1.16
2024-01-10T13:22:53.343Z,0.92
2024-01-10T13:25:24.265Z,1.55
2024-01-10T13:27:53.845Z,2.22
2024-01-10T13:30:22.259Z,2.49
2024-01-10T13:32:51.479Z,3.24
2024-01-10T13:35:19.643Z,3.87
2024-01-10T13:37:48.750Z,4.39
2024-01-10T13:40:18.293Z,4.69
2024-01-10T13:42:46.385Z,4.90
2024-01-10T13:45:18.592Z,5.10
2024-01-10T13:47:46.667Z,5.24
2024-01-10T13:50:14.780Z,5.48
2024-01-10T13:52:45.107Z,5.56
2024-01-10T13:55:14.078Z,5.04
2024-01-10T13:57:42.291Z,4.73
2024-01-10T14:00:11.328Z,4.90
2024-01-10T14:02:44.493Z,4.58
2024-01-10T14:05:12.578Z,4.85
2024-01-10T14:07:40.938Z,4.72
2024-01-10T14:10:11.896Z,4.60
2024-01-10T14:12:39.513Z,4.25
2024-01-10T14:15:08.329Z,3.87
2024-01-10T14:17:37.833Z,3.39
2024-01-10T14:20:10.297Z,3.04
2024-01-10T14:22:38.246Z,2.72
2024-01-10T14:25:08.007Z,2.42
2024-01-10T14:27:36.372Z,2.18
2024-01-10T14:30:05.816Z,1.98
2024-01-10T14:32:35.087Z,1.75
2024-01-10T14:35:04.745Z,1.53
2024-01-10T14:37:38.217Z,1.30
2024-01-10T14:40:07.849Z,1.12
2024-01-10T14:42:36.537Z,0.99
2024-01-10T14:45:05.596Z,0.83
2024-01-10T14:47:33.325Z,0.67
2024-01-10T14:50:02.717Z,0.59
2024-01-10T14:52:44.368Z,0.44
2024-01-10T14:55:14.587Z,0.30
2024-01-10T14:57:42.345Z,0.20
2024-01-10T15:00:11.322Z,0.14
2024-01-10T15:02:40.017Z,0.08
2024-01-10T15:05:08.967Z,-0.03
2024-01-10T15:07:37.062Z,-0.14
2024-01-10T15:10:08.184Z,-0.21
2024-01-10T15:12:35.744Z,-0.29
2024-01-10T15:15:03.572Z,-0.34
2024-01-10T15:17:31.726Z,-0.40
2024-01-10T15:20:00.726Z,-0.48
2024-01-10T15:22:30.138Z,-0.53
2024-01-10T15:24:58.026Z,-0.59
2024-01-10T15:27:29.373Z,-0.68
2024-01-10T15:30:07.016Z,-0.76
2024-01-10T15:32:43.204Z,-0.81
2024-01-10T15:35:10.953Z,-0.91
2024-01-10T15:37:39.141Z,-1.06
2024-01-10T15:40:11.376Z,-1.06
2024-01-10T15:42:41.077Z,-1.15
2024-01-10T15:45:10.113Z,-1.32
2024-01-10T15:47:37.848Z,-1.32
2024-01-10T15:50:06.387Z,-1.38
2024-01-10T15:52:36.732Z,-1.42
2024-01-10T15:55:06.368Z,-1.46
2024-01-10T15:57:35.441Z,-1.54
2024-01-10T16:00:05.136Z,-1.58
2024-01-10T16:02:33.074Z,-1.67
2024-01-10T16:05:01.414Z,-1.73
2024-01-10T16:07:29.639Z,-1.77
2024-01-10T16:09:57.427Z,-1.81
2024-01-10T16:12:25.888Z,-1.87
2024-01-10T16:14:53.468Z,-1.90
2024-01-10T16:17:22.982Z,-1.90
2024-01-10T16:19:53.975Z,-2.00
2024-01-10T16:22:21.705Z,-2.05
2024-01-10T16:24:49.751Z,-2.03
2024-01-10T16:27:18.425Z,-2.02
2024-01-10T16:29:48.204Z,-2.06
2024-01-10T16:32:16.674Z,-2.14
2024-01-10T16:34:50.947Z,-2.19
2024-01-10T16:37:29.744Z,-2.28
2024-01-10T16:40:13.829Z,-2.33
2024-01-10T16:45:53.518Z,-2.43
2024-01-10T16:48:40.538Z,-2.49
2024-01-10T16:51:23.410Z,-2.51
2024-01-10T16:53:51.720Z,-2.54
2024-01-10T16:56:30.625Z,-2.59
2024-01-10T16:59:07.196Z,-2.63
2024-01-10T17:01:36.846Z,-2.71
2024-01-10T17:04:18.644Z,-2.72
2024-01-10T17:06:50.707Z,-2.84
2024-01-10T17:09:20.250Z,-2.91
2024-01-10T17:12:04.587Z,-2.99
2024-01-10T17:14:33.126Z,-3.06
2024-01-10T17:17:03.035Z,-3.04
2024-01-10T17:19:35.124Z,-3.07
2024-01-10T17:22:19.564Z,-3.09
2024-01-10T17:24:48.072Z,-3.15
2024-01-10T17:27:28.271Z,-3.21
2024-01-10T17:30:04.428Z,-3.28
2024-01-10T17:32:35.507Z,-3.34
2024-01-10T17:35:04.346Z,-3.38
2024-01-10T17:37:34.434Z,-3.36
2024-01-10T17:40:15.687Z,-3.41
2024-01-10T17:42:43.555Z,-3.48
2024-01-10T17:45:12.927Z,-3.50
2024-01-10T17:47:47.224Z,-3.54
2024-01-10T17:50:17.120Z,-3.56
2024-01-10T17:52:46.153Z,-3.66
2024-01-10T17:55:17.177Z,-3.68
2024-01-10T17:57:45.669Z,-3.72
2024-01-10T18:00:16.604Z,-3.74
2024-01-10T18:03:00.681Z,-3.85
2024-01-10T18:05:29.552Z,-3.90
2024-01-10T18:08:03.778Z,-3.92
2024-01-10T18:10:32.780Z,-3.93
2024-01-10T18:13:07.002Z,-4.00
2024-01-10T18:15:36.757Z,-4.05
2024-01-10T18:18:12.147Z,-4.10
2024-01-10T18:23:25.565Z,-4.17
2024-01-10T18:25:53.593Z,-4.29
2024-01-10T18:28:30.974Z,-4.31
2024-01-10T18:31:01.390Z,-4.35
2024-01-10T18:33:32.749Z,-4.37
2024-01-10T18:36:03.864Z,-4.38
2024-01-10T18:38:36.275Z,-4.35
2024-01-10T18:44:08.494Z,-4.43
2024-01-10T18:46:42.677Z,-4.45
2024-01-10T18:49:14.178Z,-4.48
2024-01-10T18:51:44.804Z,-4.46
2024-01-10T18:54:16.948Z,-4.49
2024-01-10T18:56:45.950Z,-4.57
2024-01-10T18:59:15.109Z,-4.65
2024-01-10T19:01:48.340Z,-4.67
2024-01-10T19:04:15.981Z,-4.71
2024-01-10T19:06:44.081Z,-4.71
2024-01-10T19:09:12.963Z,-4.72
2024-01-10T19:11:57.061Z,-4.73
2024-01-10T19:14:30.087Z,-4.78
2024-01-10T19:17:00.185Z,-4.79
2024-01-10T19:19:30.104Z,-4.82
2024-01-10T19:22:14.191Z,-4.93
2024-01-10T19:24:42.273Z,-4.97
2024-01-10T19:27:11.346Z,-4.91
2024-01-10T19:29:41.033Z,-4.97
2024-01-10T19:32:16.744Z,-5.02
2024-01-10T19:34:46.712Z,-5.08
2024-01-10T19:37:18.890Z,-5.07
2024-01-10T19:39:47.799Z,-5.10
2024-01-10T19:42:21.709Z,-5.13
2024-01-10T19:44:53.690Z,-5.18
2024-01-10T19:47:24.014Z,-5.23
2024-01-10T19:49:56.628Z,-5.31
2024-01-10T19:52:31.593Z,-5.34
2024-01-10T19:55:12.535Z,-5.26
2024-01-10T20:00:32.930Z,-5.38
2024-01-10T20:09:01.858Z,-5.45
2024-01-10T20:11:33.198Z,-5.53
2024-01-10T20:14:09.510Z,-5.52
2024-01-10T20:16:38.988Z,-5.61
2024-01-10T20:21:55.421Z,-5.70
2024-01-10T20:24:26.109Z,-5.70
2024-01-10T20:26:58.737Z,-5.74
2024-01-10T20:29:32.705Z,-5.73
2024-01-10T20:32:21.972Z,-5.76
2024-01-10T20:34:55.782Z,-5.81
2024-01-10T20:40:30.175Z,-5.83
2024-01-10T20:42:57.846Z,-5.88
2024-01-10T20:45:30.554Z,-5.88
2024-01-10T20:48:02.832Z,-5.93
2024-01-10T20:53:18.723Z,-6.06
2024-01-10T20:56:02.835Z,-6.05
2024-01-10T20:58:32.489Z,-6.10
2024-01-10T21:01:03.041Z,-6.11
2024-01-10T21:03:33.581Z,-6.14
2024-01-10T21:06:03.471Z,-6.17
2024-01-10T21:08:40.838Z,-6.17
2024-01-10T21:11:12.870Z,-6.15
2024-01-10T21:13:52.088Z,-6.14
2024-01-10T21:16:24.736Z,-6.13
2024-01-10T21:18:55.812Z,-6.18
2024-01-10T21:21:41.524Z,-6.20
2024-01-10T21:24:10.916Z,-6.22
2024-01-10T21:26:39.787Z,-6.22
2024-01-10T21:29:08.920Z,-6.21
2024-01-10T21:34:42.427Z,-6.25
2024-01-10T21:37:10.952Z,-6.21
2024-01-10T21:39:44.055Z,-6.26
2024-01-10T21:42:19.969Z,-6.28
2024-01-10T21:44:52.925Z,-6.31
2024-01-10T21:47:34.274Z,-6.26
2024-01-10T21:50:02.451Z,-6.32
2024-01-10T21:52:36.053Z,-6.32
2024-01-10T21:55:13.296Z,-6.31
2024-01-10T21:57:45.517Z,-6.33
2024-01-10T22:00:15.192Z,-6.39
2024-01-10T22:02:56.102Z,-6.41
2024-01-10T22:05:26.952Z,-6.38
2024-01-10T22:08:14.935Z,-6.36
2024-01-10T22:10:51.761Z,-6.41
2024-01-10T22:13:28.904Z,-6.41
2024-01-10T22:15:59.437Z,-6.37
2024-01-10T22:18:33.465Z,-6.39
2024-01-10T22:21:03.499Z,-6.46
2024-01-10T22:23:33.397Z,-6.46
2024-01-10T22:26:02.763Z,-6.48
2024-01-10T22:28:35.157Z,-6.47
2024-01-10T22:31:03.765Z,-6.49
2024-01-10T22:33:37.599Z,-6.41
2024-01-10T22:36:07.238Z,-6.45
2024-01-10T22:38:35.731Z,-6.47
2024-01-10T22:41:05.019Z,-6.57
2024-01-10T22:43:34.051Z,-6.56
2024-01-10T22:46:03.776Z,-6.67
2024-01-10T22:48:34.981Z,-6.60
2024-01-10T22:51:04.082Z,-6.69
2024-01-10T22:53:32.901Z,-6.72
2024-01-10T22:56:02.276Z,-6.75
2024-01-10T22:58:32.193Z,-6.77
2024-01-10T23:01:02.755Z,-6.74
2024-01-10T23:03:39.424Z,-6.78
2024-01-10T23:06:12.457Z,-6.73
2024-01-10T23:08:42.478Z,-6.70
2024-01-10T23:11:10.895Z,-6.70
2024-01-10T23:13:38.964Z,-6.63
2024-01-10T23:16:08.762Z,-6.58
2024-01-10T23:18:37.674Z,-6.64
2024-01-10T23:21:06.273Z,-6.69
2024-01-10T23:23:37.157Z,-6.75
2024-01-10T23:26:08.305Z,-6.72
2024-01-10T23:28:37.521Z,-6.71
2024-01-10T23:36:44.146Z,-6.64
2024-01-10T23:39:15.358Z,-6.60
2024-01-10T23:41:47.906Z,-6.62
2024-01-10T23:44:17.163Z,-6.62
2024-01-10T23:46:46.691Z,-6.64
2024-01-10T23:49:15.673Z,-6.67
2024-01-10T23:51:46.702Z,-6.70
2024-01-10T23:54:20.728Z,-6.66
2024-01-10T23:56:50.329Z,-6.75
2024-01-10T23:59:20.277Z,-6.78
